logo tempoitalia

Diretta Meteo Independence, Stati Uniti (USA)lunedì 31 agosto ore 01:30

Mappa
Sereno 27 °C Sereno 24 Ore: T.min 24 T.max 40
Ponente Sud Km/h 16.7 Punto di rugiada: 17 °C Umidità: 54% Visibilità: 10 Km
Il sole sorge alle: 06:53 Il sole tramonta alle: 19:53
31 Agosto 2026 01:30 tempo osservato: Sereno Sereno 27 54 1013 vento: Nord S 16.7
31 Agosto 2026 01:10 tempo osservato: Sereno Sereno 27 54 1013 vento: Nord S/SE 18.5
31 Agosto 2026 00:50 tempo osservato: Sereno Sereno 28 51 1013 vento: Nord S/SE 20.3
31 Agosto 2026 00:30 tempo osservato: Sereno Sereno 27 50 1013 vento: Nord S/SE 13
31 Agosto 2026 00:10 tempo osservato: Sereno Sereno 26 54 1013 vento: Nord S 13
30 Agosto 2026 23:50 tempo osservato: Sereno Sereno 27 50 1013 vento: Nord S 11.1
30 Agosto 2026 23:30 tempo osservato: Sereno Sereno 27 50 1012 vento: Nord S/SE 11.1
30 Agosto 2026 23:10 tempo osservato: Sereno Sereno 27 50 1012 vento: Nord S/SE 11.1
30 Agosto 2026 22:50 tempo osservato: Sereno Sereno 28 48 1012 vento: Nord S/SE 13
30 Agosto 2026 22:30 tempo osservato: Sereno Sereno 28 51 1012 vento: Nord S/SE 13
30 Agosto 2026 22:10 tempo osservato: Sereno Sereno 29 48 1012 vento: Nord S/SE 13
30 Agosto 2026 21:50 tempo osservato: Sereno Sereno 30 45 1012 vento: Nord S/SE 14.8
30 Agosto 2026 21:30 tempo osservato: Sereno Sereno 31 40 1012 vento: Nord S/SE 14.8
30 Agosto 2026 21:10 tempo osservato: Sereno Sereno 31 40 1012 vento: Nord S/SE 16.7
30 Agosto 2026 20:50 tempo osservato: Sereno Sereno 31 40 1012 vento: Nord S/SE 14.8
30 Agosto 2026 20:30 tempo osservato: Sereno Sereno 32 38 1011 vento: Nord S/SE 18.5
30 Agosto 2026 20:10 tempo osservato: Sereno Sereno 33 36 1011 vento: Nord S/SE 18.5
30 Agosto 2026 19:50 tempo osservato: Sereno Sereno 33 36 1011 vento: Nord S/SE 16.7
30 Agosto 2026 19:30 tempo osservato: Sereno Sereno 35 32 1011 vento: Nord S 20.3
30 Agosto 2026 19:10 tempo osservato: Sereno Sereno 36 30 1011 vento: Nord S 24
30 Agosto 2026 18:50 tempo osservato: Sereno Sereno 37 28 1011 vento: Nord S 27.8
30 Agosto 2026 18:30 tempo osservato: Sereno Sereno 37 28 1011 vento: Nord S 25.9
30 Agosto 2026 18:10 tempo osservato: Sereno Sereno 38 27 1011 vento: Nord S 33.3
30 Agosto 2026 17:50 tempo osservato: Sereno Sereno 38 25 1011 vento: Nord S/SE 31.5
30 Agosto 2026 17:30 tempo osservato: Sereno Sereno 39 26 1011 vento: Nord S/SE 33.3
30 Agosto 2026 17:10 tempo osservato: Sereno Sereno 39 26 1011 vento: Nord S 29.6
30 Agosto 2026 16:50 tempo osservato: Sereno Sereno 39 26 1011 vento: Nord S 31.5
30 Agosto 2026 16:30 tempo osservato: Sereno Sereno 39 26 1011 vento: Nord S/SO 31.5
30 Agosto 2026 16:10 tempo osservato: Sereno Sereno 40 24 1011 vento: Nord S 27.8
30 Agosto 2026 15:50 tempo osservato: Sereno Sereno 40 24 1011 vento: Nord S/SE 33.3
30 Agosto 2026 15:30 tempo osservato: Sereno Sereno 40 24 1012 vento: Nord S 22.2
30 Agosto 2026 15:10 tempo osservato: Sereno Sereno 39 27 1012 vento: Nord S 27.8
30 Agosto 2026 14:50 tempo osservato: Sereno Sereno 39 26 1012 vento: Nord S 20.3
30 Agosto 2026 14:30 tempo osservato: Sereno Sereno 39 27 1012 vento: Nord SO 29.6
30 Agosto 2026 14:10 tempo osservato: Sereno Sereno 39 27 1012 vento: Nord S 37
30 Agosto 2026 13:50 tempo osservato: Sereno Sereno 39 27 1013 vento: Nord S/SO 29.6
30 Agosto 2026 13:30 tempo osservato: Sereno Sereno 38 29 1013 vento: Nord SO 29.6
30 Agosto 2026 13:10 tempo osservato: Sereno Sereno 38 29 1013 vento: Nord S/SO 29.6
30 Agosto 2026 12:50 tempo osservato: Sereno Sereno 37 32 1014 vento: Nord S/SO 29.6
30 Agosto 2026 12:30 tempo osservato: Sereno Sereno 37 32 1014 vento: Nord SO 31.5
30 Agosto 2026 12:10 tempo osservato: Sereno Sereno 37 32 1014 vento: Nord S/SO 25.9
30 Agosto 2026 11:50 tempo osservato: Sereno Sereno 35 36 1014 vento: Nord S 27.8
30 Agosto 2026 11:30 tempo osservato: Sereno Sereno 35 36 1015 vento: Nord S 33.3
30 Agosto 2026 11:10 tempo osservato: Sereno Sereno 34 38 1015 vento: Nord S 29.6
30 Agosto 2026 10:50 tempo osservato: Sereno Sereno 33 41 1015 vento: Nord S/SO 27.8
30 Agosto 2026 10:30 tempo osservato: Sereno Sereno 32 43 1015 vento: Nord S 25.9
30 Agosto 2026 10:10 tempo osservato: Sereno Sereno 31 43 1015 vento: Nord S 33.3
30 Agosto 2026 09:50 tempo osservato: Sereno Sereno 30 45 1015 vento: Nord S 33.3
30 Agosto 2026 09:30 tempo osservato: Sereno Sereno 30 45 1015 vento: Nord S 31.5
30 Agosto 2026 09:10 tempo osservato: Sereno Sereno 29 48 1015 vento: Nord S 29.6
30 Agosto 2026 08:50 tempo osservato: Sereno Sereno 28 48 1015 vento: Nord S 29.6
30 Agosto 2026 08:30 tempo osservato: Sereno Sereno 27 50 1015 vento: Nord S 25.9
30 Agosto 2026 08:10 tempo osservato: Sereno Sereno 26 54 1015 vento: Nord S 20.3
30 Agosto 2026 07:50 tempo osservato: Sereno Sereno 25 57 1015 vento: Nord S 20.3
30 Agosto 2026 07:30 tempo osservato: Sereno Sereno 25 57 1015 vento: Nord S 20.3
30 Agosto 2026 07:10 tempo osservato: Sereno Sereno 24 60 1015 vento: Nord S 22.2
30 Agosto 2026 06:50 tempo osservato: Sereno Sereno 24 60 1015 vento: Nord S 20.3
30 Agosto 2026 06:30 tempo osservato: Sereno Sereno 24 60 1015 vento: Nord S 20.3
30 Agosto 2026 06:10 tempo osservato: Sereno Sereno 24 60 1015 vento: Nord S 22.2
30 Agosto 2026 05:50 tempo osservato: Sereno Sereno 25 57 1015 vento: Nord S 20.3
30 Agosto 2026 05:30 tempo osservato: Sereno Sereno 25 57 1014 vento: Nord S 18.5
30 Agosto 2026 05:10 tempo osservato: Sereno Sereno 25 57 1014 vento: Nord S 18.5
30 Agosto 2026 04:50 tempo osservato: Sereno Sereno 25 57 1014 vento: Nord S 20.3
30 Agosto 2026 04:30 tempo osservato: Sereno Sereno 26 54 1014 vento: Nord S 22.2
30 Agosto 2026 04:10 tempo osservato: Sereno Sereno 26 54 1014 vento: Nord S 20.3
30 Agosto 2026 03:50 tempo osservato: Sereno Sereno 26 54 1014 vento: Nord S 18.5
30 Agosto 2026 03:30 tempo osservato: Sereno Sereno 26 54 1014 vento: Nord S 18.5
30 Agosto 2026 03:10 tempo osservato: Sereno Sereno 26 54 1014 vento: Nord S 14.8
30 Agosto 2026 02:50 tempo osservato: Sereno Sereno 26 50 1014 vento: Nord S 16.7
30 Agosto 2026 02:30 tempo osservato: Sereno Sereno 25 53 1014 vento: Nord S 18.5
30 Agosto 2026 02:10 tempo osservato: Sereno Sereno 25 53 1014 vento: Nord S 13
30 Agosto 2026 01:50 tempo osservato: Sereno Sereno 25 53 1014 vento: Nord S 13